Edmonton, Alberta

2:00 PM MDT on August 21, 2014 (GMT -0600)
South Park | Change Station
CLOSE
Current Station
Personal Weather Station
Location: Leduc, ALBERTA
Elevation: 2408 ft
Nearby Weather Stations

Elev 2408 ft 53.25 °N, 113.54 °W | Updated 2 seconds ago

Mostly Cloudy
Mostly Cloudy
62.6 °F
Feels Like 62.6 °F
N
2.2
Wind Variable Wind from NE
Gusts 0.0 mph

Today is forecast to be nearly the same temperature as yesterday.

Today
High -- | Low -- °F
--% Chance of Precip.
Yesterday
High -- | Low -- °F
Precip. -- in
6:25 AM 8:48 PM
Waning Crescent, 12% visible
Pressure 30.23 in
Visibility 15.0 miles
Clouds Scattered Clouds 3000 ft
Mostly Cloudy 5800 ft
Mostly Cloudy 24000 ft
Dew Point 34 °F
Humidity 34%
Rainfall 0.00 in
Snow Depth Not available.
UV 4 out of 12
Pollen Not available.
Air Quality Not available.
Flu Activity Not available.
METAR CYEG 211900Z 36003KT 330V050 15SM SCT030TCU BKN058 BKN240 14/06 A3019 RMK TCU4SC2CI1 SLP237 DENSITY ALT 2500FT

More Conditions Fewer Conditions

Pressure 30.23 in
Visibility 15.0 miles
Clouds Scattered Clouds 3000 ft
Mostly Cloudy 5800 ft
Mostly Cloudy 24000 ft
Dew Point 34 °F
Humidity 34%
Rainfall 0.00 in
Snow Depth Not available.
UV 4 out of 12
Pollen Not available.
Air Quality Not available.
Flu Activity Not available.
METAR CYEG 211900Z 36003KT 330V050 15SM SCT030TCU BKN058 BKN240 14/06 A3019 RMK TCU4SC2CI1 SLP237 DENSITY ALT 2500FT

More Conditions Fewer Conditions

10-Day Weather Forecast

Almanac

Astronomy

Aug. 21, 2014 Rise Set
Actual Time 6:25 AM MDT 8:48 PM MDT
Civil Twilight 5:46 AM MDT 9:26 PM MDT
Nautical Twilight 4:57 AM MDT 10:15 PM MDT
Astronomical Twilight 3:58 AM MDT 11:13 PM MDT
Moon 2:44 AM MDT 6:31 PM MDT
Length of Visible Light 15h 40m
Length of Day
14h 23m
Tomorrow will be 3m 58s shorter.
Waning Crescent, 12% of the Moon is Illuminated
Today
Waning Crescent
Aug 25
New
Sep 2
First Quarter
Sep 8
Full
Sep 15
Last Quarter

Today's Extremes

Country Highs Country Lows

Community

WunderPhotos

Upload Photos

1,746,011 photos uploaded!

WunderBlogs® & News

Nearby

Snow Depth

Not available.

Earthquake Activity

City Distance Mag. Time & Date
No recent earthquake activity has been reported nearby.
Minimum magnitude displayed is 2.5.

Coastal Water Temperatures

Place Temperature
No Stations Reporting

Nearby Weather Stations